Time;durP1;ratioP1;P1;durP2;ratioP2;P2;SDS_P1;SDS_P2;PMS_P1;PMS_P2;Temp;Humidity;BMP_temperature;BMP_pressure;BME280_temperature;BME280_humidity;BME280_pressure;Samples;Min_cycle;Max_cycle;Signal;HPM_P1;HPM_P2
2021/04/01 00:00:55;;;;;;;30.20;23.60;;;;;;;10.33;79.31;99878.97;1787842;79;21180;-61
2021/04/01 00:03:22;;;;;;;35.98;23.92;;;;;;;10.40;79.00;99878.17;1790508;79;21311;-61
2021/04/01 00:05:50;;;;;;;28.10;22.80;;;;;;;10.35;79.00;99873.24;1789856;79;21394;-61
2021/04/01 00:08:18;;;;;;;30.40;22.85;;;;;;;10.28;79.09;99880.84;1786138;79;21161;-61
2021/04/01 00:10:47;;;;;;;30.40;22.40;;;;;;;10.25;78.96;99877.29;1760955;80;21154;-61
2021/04/01 00:13:15;;;;;;;30.60;23.70;;;;;;;10.24;78.81;99871.03;1741531;82;21161;-60
2021/04/01 00:15:42;;;;;;;31.73;24.95;;;;;;;10.14;79.07;99866.91;1786160;79;21177;-61
2021/04/01 00:18:11;;;;;;;32.75;23.50;;;;;;;10.06;79.28;99863.30;1787473;79;21137;-61
2021/04/01 00:20:40;;;;;;;33.98;23.98;;;;;;;10.09;79.16;99860.61;1786284;79;21129;-62
2021/04/01 00:23:08;;;;;;;30.65;23.95;;;;;;;10.12;78.86;99856.82;1786318;79;21175;-61
2021/04/01 00:25:36;;;;;;;33.00;24.12;;;;;;;10.04;79.04;99848.34;1786567;79;21165;-61
2021/04/01 00:28:04;;;;;;;28.10;22.62;;;;;;;9.94;79.25;99846.40;1786182;80;21177;-61
2021/04/01 00:30:31;;;;;;;32.65;22.55;;;;;;;9.93;79.09;99842.85;1801795;79;21536;-61
2021/04/01 00:32:59;;;;;;;31.23;23.80;;;;;;;9.94;78.91;99843.14;1807423;79;21133;-61
2021/04/01 00:35:27;;;;;;;30.57;23.92;;;;;;;9.82;79.01;99843.06;1729385;82;21137;-61
2021/04/01 00:37:56;;;;;;;32.30;23.90;;;;;;;9.67;79.38;99833.48;1786103;79;21137;-61
2021/04/01 00:40:26;;;;;;;31.45;23.85;;;;;;;9.63;79.39;99833.73;1786006;80;21158;-61
2021/04/01 00:42:54;;;;;;;31.23;24.12;;;;;;;9.61;79.37;99833.16;1790822;79;21202;-61
2021/04/01 00:45:21;;;;;;;35.30;25.12;;;;;;;9.50;79.64;99829.02;1788843;79;21183;-61
2021/04/01 00:47:51;;;;;;;32.25;24.10;;;;;;;9.39;79.95;99831.92;1786651;79;21167;-61
2021/04/01 00:50:26;;;;;;;31.87;23.98;;;;;;;9.37;79.95;99828.13;1796009;79;21193;-61
2021/04/01 00:52:55;;;;;;;34.43;24.67;;;;;;;9.35;79.92;99827.56;1796509;79;21190;-61
2021/04/01 00:55:23;;;;;;;35.08;25.08;;;;;;;9.23;80.13;99831.56;1783764;79;21142;-61
2021/04/01 00:57:52;;;;;;;31.07;23.32;;;;;;;9.12;80.41;99830.66;1787892;79;21145;-61
2021/04/01 01:00:25;;;;;;;30.30;24.18;;;;;;;9.12;80.56;99822.52;1788201;79;21113;-62
2021/04/01 01:02:51;;;;;;;29.87;22.25;;;;;;;9.15;80.70;99821.16;1730126;82;21602;-62
2021/04/01 01:05:20;;;;;;;31.70;23.57;;;;;;;9.08;81.01;99821.39;1786186;79;21173;-62
2021/04/01 01:07:48;;;;;;;30.50;23.92;;;;;;;9.00;81.29;99817.25;1740205;82;21460;-62
2021/04/01 01:10:30;;;;;;;30.27;22.42;;;;;;;9.02;81.23;99817.01;1785940;80;21195;-62
2021/04/01 01:12:59;;;;;;;32.23;24.90;;;;;;;9.09;81.15;99812.17;1787257;79;21833;-62
2021/04/01 01:15:26;;;;;;;33.35;24.92;;;;;;;9.06;81.44;99808.63;1787356;79;21556;-62
2021/04/01 01:17:55;;;;;;;33.40;23.92;;;;;;;8.99;81.65;99808.03;1786135;79;21162;-62
2021/04/01 01:20:25;;;;;;;31.42;23.38;;;;;;;9.05;81.74;99801.55;1790573;79;21162;-62
2021/04/01 01:22:54;;;;;;;33.02;24.75;;;;;;;9.10;81.52;99804.31;1782422;79;21629;-62
2021/04/01 01:25:22;;;;;;;30.50;23.40;;;;;;;9.05;81.78;99797.47;1787890;79;21169;-62
2021/04/01 01:27:50;;;;;;;33.65;23.95;;;;;;;9.04;82.08;99797.72;1779416;79;21153;-62
2021/04/01 01:30:19;;;;;;;30.48;23.90;;;;;;;9.12;81.94;99794.53;1777716;81;21138;-62
2021/04/01 01:32:55;;;;;;;29.57;22.82;;;;;;;9.14;81.91;99793.19;1779750;79;21349;-61
2021/04/01 01:35:20;;;;;;;30.05;23.20;;;;;;;9.06;82.17;99792.33;1778396;79;21609;-62
2021/04/01 01:37:58;;;;;;;32.42;22.27;;;;;;;9.10;82.07;99785.84;1777861;81;21594;-61
2021/04/01 01:40:27;;;;;;;30.30;23.18;;;;;;;9.18;82.05;99786.69;1777613;80;21172;-62
2021/04/01 01:43:00;;;;;;;32.20;24.18;;;;;;;9.16;82.18;99783.43;1756193;79;21589;-61
2021/04/01 01:45:28;;;;;;;29.60;22.65;;;;;;;9.14;82.32;99779.61;1779260;79;21170;-61
2021/04/01 01:47:57;;;;;;;31.77;23.00;;;;;;;9.21;82.16;99775.33;1807056;79;21126;-61
2021/04/01 01:50:30;;;;;;;26.20;21.75;;;;;;;9.31;81.91;99771.31;1783339;79;21205;-62
2021/04/01 01:52:58;;;;;;;28.40;21.57;;;;;;;9.30;81.99;99775.10;1778523;79;21151;-61
2021/04/01 01:55:26;;;;;;;27.17;20.15;;;;;;;9.29;82.08;99770.74;1709108;82;21190;-61
2021/04/01 01:57:54;;;;;;;27.87;20.45;;;;;;;9.40;81.84;99771.08;1779641;79;21642;-61
2021/04/01 02:00:33;;;;;;;28.38;21.30;;;;;;;9.46;81.64;99761.88;1775515;79;21130;-62
2021/04/01 02:03:03;;;;;;;26.90;21.33;;;;;;;9.44;81.76;99760.80;1776276;79;21547;-61
2021/04/01 02:05:32;;;;;;;26.15;20.10;;;;;;;9.53;81.63;99761.66;1758646;80;21190;-61
2021/04/01 02:08:00;;;;;;;25.12;19.75;;;;;;;9.61;81.34;99756.52;1778560;79;21119;-61
2021/04/01 02:10:30;;;;;;;27.02;19.67;;;;;;;9.69;81.23;99757.92;1786208;79;21553;-61
2021/04/01 02:12:59;;;;;;;26.75;20.08;;;;;;;9.68;81.17;99748.13;1777717;79;21528;-61
2021/04/01 02:15:34;;;;;;;24.20;19.30;;;;;;;9.75;80.96;99748.16;1777885;81;21288;-61
2021/04/01 02:18:10;;;;;;;27.55;20.00;;;;;;;9.86;80.59;99736.77;1778029;81;21153;-61
2021/04/01 02:20:42;;;;;;;25.97;20.45;;;;;;;9.84;80.42;99745.75;1778376;79;21165;-61
2021/04/01 02:23:20;;;;;;;28.32;20.05;;;;;;;9.80;80.38;99745.47;1806053;79;21598;-61
2021/04/01 02:25:48;;;;;;;24.37;18.85;;;;;;;9.85;80.08;99750.08;1786056;79;21173;-61
2021/04/01 02:28:17;;;;;;;28.85;21.45;;;;;;;9.91;79.72;99743.60;1779853;79;21175;-61
2021/04/01 02:30:46;;;;;;;28.52;21.97;;;;;;;9.87;79.66;99745.22;1742447;82;21158;-61
2021/04/01 02:33:14;;;;;;;27.27;20.43;;;;;;;9.78;79.74;99741.36;1784586;79;21169;-61
2021/04/01 02:35:42;;;;;;;28.73;19.82;;;;;;;9.78;79.67;99742.72;1777893;79;21138;-61
2021/04/01 02:38:10;;;;;;;30.43;22.20;;;;;;;9.82;79.31;99737.85;1785137;79;21593;-61
2021/04/01 02:40:38;;;;;;;29.05;21.95;;;;;;;9.74;79.31;99733.48;1781890;79;21580;-61
2021/04/01 02:43:09;;;;;;;28.50;21.77;;;;;;;9.63;79.39;99745.40;1782588;79;21203;-61
2021/04/01 02:45:37;;;;;;;28.62;20.92;;;;;;;9.57;79.46;99743.18;1779341;79;21530;-61
2021/04/01 02:48:06;;;;;;;32.65;21.57;;;;;;;9.60;79.30;99745.93;1779870;79;21169;-61
2021/04/01 02:50:34;;;;;;;32.83;23.75;;;;;;;9.52;79.45;99738.27;1784847;79;21168;-62
2021/04/01 02:53:02;;;;;;;29.18;22.75;;;;;;;9.39;79.75;99747.17;1777999;79;21144;-61
2021/04/01 02:55:30;;;;;;;29.37;22.90;;;;;;;9.33;80.03;99745.52;1778470;79;21288;-61
2021/04/01 02:57:57;;;;;;;35.17;25.50;;;;;;;9.35;79.78;99741.98;1783684;79;21134;-61
2021/04/01 03:00:29;;;;;;;33.33;24.52;;;;;;;9.28;80.11;99738.68;1781897;79;21162;-61
2021/04/01 03:05:30;;;;;;;34.23;24.73;;;;;;;9.18;80.92;99734.55;1791053;79;23486;-60
2021/04/01 03:07:59;;;;;;;32.70;24.60;;;;;;;9.15;80.77;99732.36;1763000;80;21519;-60
2021/04/01 03:10:26;;;;;;;30.48;24.15;;;;;;;9.06;81.05;99733.95;1789415;80;21548;-60
2021/04/01 03:12:53;;;;;;;35.25;25.15;;;;;;;8.99;81.06;99736.08;1790347;79;21229;-60
2021/04/01 03:15:21;;;;;;;33.75;24.98;;;;;;;9.00;80.91;99734.97;1791080;80;21425;-60
2021/04/01 03:17:49;;;;;;;35.78;26.00;;;;;;;9.01;80.65;99731.19;1777042;79;21160;-60
2021/04/01 03:20:18;;;;;;;38.13;27.80;;;;;;;8.93;80.71;99727.59;1758425;80;21166;-60
2021/04/01 03:22:46;;;;;;;37.13;26.48;;;;;;;8.82;80.84;99732.13;1789986;79;21197;-61
2021/04/01 03:25:14;;;;;;;34.43;26.82;;;;;;;8.81;80.86;99726.45;1764539;80;21177;-61
2021/04/01 03:27:42;;;;;;;37.23;26.40;;;;;;;8.79;80.82;99727.77;1760032;80;21581;-61
2021/04/01 03:30:13;;;;;;;37.45;25.55;;;;;;;8.67;81.10;99725.25;1737585;80;21168;-61
2021/04/01 03:32:42;;;;;;;34.88;25.92;;;;;;;8.59;81.40;99722.19;1769299;80;21208;-61
2021/04/01 03:35:13;;;;;;;35.80;26.75;;;;;;;8.63;81.26;99723.31;1769649;80;21330;-61
2021/04/01 03:37:42;;;;;;;33.35;26.40;;;;;;;8.56;81.19;99718.11;1773371;79;21302;-61
2021/04/01 03:40:10;;;;;;;35.98;26.37;;;;;;;8.43;81.61;99716.63;1789899;80;21141;-61
2021/04/01 03:42:38;;;;;;;35.75;26.23;;;;;;;8.40;81.70;99719.03;1774174;80;21124;-61
2021/04/01 03:45:09;;;;;;;38.13;27.35;;;;;;;8.41;82.05;99716.08;1753970;80;21150;-61
2021/04/01 03:47:37;;;;;;;37.70;27.73;;;;;;;8.34;82.44;99717.36;1791230;79;21958;-61
2021/04/01 03:50:07;;;;;;;36.17;26.73;;;;;;;8.24;82.91;99719.42;1775257;80;21288;-61
2021/04/01 03:52:37;;;;;;;40.40;27.65;;;;;;;8.28;82.68;99723.29;1758973;80;21686;-61
2021/04/01 03:57:52;;;;;;;37.73;28.05;;;;;;;8.24;82.81;99718.06;1770326;80;21234;-61
2021/04/01 04:00:24;;;;;;;43.45;26.82;;;;;;;8.21;83.15;99713.16;1766795;80;21298;-62
2021/04/01 04:03:03;;;;;;;37.58;27.05;;;;;;;8.32;82.85;99714.10;1723892;80;21296;-61
2021/04/01 04:08:16;;;;;;;35.33;27.00;;;;;;;8.29;83.15;99711.91;1744274;81;21138;-61
2021/04/01 04:15:58;;;;;;;42.17;28.05;;;;;;;8.35;83.16;99706.27;1704528;83;21179;-61
2021/04/01 04:18:28;;;;;;;33.23;25.68;;;;;;;8.32;83.34;99701.36;1720854;83;21168;-60
2021/04/01 04:20:55;;;;;;;35.03;26.93;;;;;;;8.43;83.12;99701.70;1716958;83;21149;-61
2021/04/01 04:23:24;;;;;;;35.60;27.77;;;;;;;8.49;83.01;99701.22;1722444;83;21214;-60
2021/04/01 04:25:55;;;;;;;36.05;27.50;;;;;;;8.46;83.28;99703.92;1706581;83;21126;-60
2021/04/01 04:31:00;;;;;;;34.45;25.65;;;;;;;8.77;83.08;99697.36;1789787;78;23079;-61
2021/04/01 04:33:27;;;;;;;38.00;28.47;;;;;;;8.78;83.14;99699.01;1760879;80;21194;-61
2021/04/01 04:35:56;;;;;;;36.65;27.50;;;;;;;8.81;83.20;99693.88;1761831;80;21129;-61
2021/04/01 04:38:25;;;;;;;37.15;26.37;;;;;;;8.95;82.96;99690.16;1759537;80;21173;-61
2021/04/01 04:43:30;;;;;;;35.52;30.32;;;;;;;9.24;82.10;99687.88;1753300;79;28747;-61
2021/04/01 04:45:58;;;;;;;36.28;26.80;;;;;;;9.53;81.38;99683.64;1737025;82;21283;-61
2021/04/01 04:48:26;;;;;;;35.70;26.82;;;;;;;9.83;80.40;99680.22;1731204;82;21606;-62
2021/04/01 04:50:54;;;;;;;38.98;27.95;;;;;;;9.89;80.02;99679.95;1750462;81;21160;-61
2021/04/01 04:53:23;;;;;;;38.73;29.77;;;;;;;9.91;79.97;99676.45;1742815;82;21283;-61
2021/04/01 04:59:03;;;;;;;34.67;26.87;;;;;;;10.06;79.82;99683.79;1747804;82;21164;-61
2021/04/01 05:06:57;;;;;;;37.85;27.98;;;;;;;10.42;78.60;99673.79;1730497;82;21173;-61
2021/04/01 05:09:24;;;;;;;37.73;27.25;;;;;;;10.61;78.09;99674.06;1735012;82;21164;-61
2021/04/01 05:11:52;;;;;;;39.63;28.35;;;;;;;10.80;77.18;99668.34;1738939;82;21600;-61
2021/04/01 05:14:22;;;;;;;40.20;29.30;;;;;;;10.90;76.86;99665.59;1721815;83;21213;-59
2021/04/01 05:16:50;;;;;;;39.30;27.98;;;;;;;11.03;76.57;99666.91;1724547;82;21208;-59
2021/04/01 05:19:18;;;;;;;40.10;27.22;;;;;;;11.16;76.30;99671.23;1724434;82;21558;-59
2021/04/01 05:21:50;;;;;;;34.98;24.30;;;;;;;11.38;75.51;99666.27;1747469;82;21193;-59
2021/04/01 05:24:18;;;;;;;33.98;26.45;;;;;;;11.57;74.49;99662.92;1730796;82;21532;-58
2021/04/01 05:32:05;;;;;;;33.87;26.03;;;;;;;11.93;72.82;99655.67;1813556;79;23131;-60
2021/04/01 05:34:34;;;;;;;30.88;24.40;;;;;;;12.02;72.56;99649.05;1729700;82;21323;-59
2021/04/01 05:37:02;;;;;;;28.87;23.07;;;;;;;12.09;72.33;99656.36;1777132;80;21137;-59
2021/04/01 05:39:37;;;;;;;29.12;22.32;;;;;;;12.10;71.69;99649.00;1722323;81;21608;-59
2021/04/01 05:42:06;;;;;;;26.85;21.12;;;;;;;12.13;71.68;99647.88;1707348;83;21125;-59
2021/04/01 05:44:43;;;;;;;26.90;22.40;;;;;;;12.32;71.15;99650.20;1702508;83;21179;-59
2021/04/01 05:47:16;;;;;;;27.05;20.17;;;;;;;12.45;70.65;99645.99;1703091;83;21135;-59
2021/04/01 05:55:14;;;;;;;25.72;19.48;;;;;;;12.57;69.79;99636.89;1730576;82;21157;-60
2021/04/01 06:05:32;;;;;;;22.60;18.20;;;;;;;13.03;68.65;99640.52;1766975;79;23118;-59
2021/04/01 06:08:08;;;;;;;21.17;18.05;;;;;;;13.10;67.83;99632.83;1727368;82;21180;-59
2021/04/01 06:10:35;;;;;;;21.62;17.52;;;;;;;13.27;67.68;99635.34;1717167;83;21157;-59
2021/04/01 06:13:14;;;;;;;23.47;18.50;;;;;;;13.31;66.81;99632.30;1719576;82;21210;-60
2021/04/01 06:15:47;;;;;;;21.27;18.42;;;;;;;13.35;67.05;99624.33;1708729;83;21149;-60
2021/04/01 06:18:21;;;;;;;28.45;18.45;;;;;;;13.42;66.78;99623.41;1707758;83;21225;-60
2021/04/01 06:20:50;;;;;;;22.77;18.55;;;;;;;13.56;66.42;99626.24;1693864;83;21169;-60
2021/04/01 06:23:31;;;;;;;23.25;18.77;;;;;;;13.77;65.30;99618.83;1712998;82;21218;-61
2021/04/01 06:25:59;;;;;;;25.32;20.17;;;;;;;13.89;65.62;99623.29;1715604;83;21153;-60
2021/04/01 06:31:25;;;;;;;20.85;17.67;;;;;;;14.18;64.90;99616.28;1761571;79;23575;-61
2021/04/01 06:33:56;;;;;;;24.87;19.25;;;;;;;14.24;63.84;99615.08;1703653;82;21170;-59
2021/04/01 06:38:07;;;;;;;23.57;18.35;;;;;;;14.43;63.27;99608.23;1762434;79;22897;-61
2021/04/01 06:40:19;;;;;;;22.85;19.12;;;;;;;14.42;63.34;99616.19;1741307;82;21643;-62
2021/04/01 06:42:56;;;;;;;20.10;17.30;;;;;;;14.41;63.48;99612.66;1723773;82;21347;-62
2021/04/01 06:45:24;;;;;;;22.05;18.45;;;;;;;14.48;63.18;99609.53;1727904;82;21553;-64
2021/04/01 06:47:55;;;;;;;22.10;18.90;;;;;;;14.54;62.74;99609.69;1733186;82;21210;-62
2021/04/01 06:53:16;;;;;;;22.15;17.52;;;;;;;14.86;62.27;99605.54;1797616;79;23071;-60
2021/04/01 06:55:47;;;;;;;20.95;17.37;;;;;;;15.12;61.44;99605.05;1760770;80;21291;-60
2021/04/01 06:58:33;;;;;;;23.80;17.87;;;;;;;15.49;60.67;99599.91;1791338;80;21638;-61
2021/04/01 07:01:11;;;;;;;23.92;18.35;;;;;;;15.59;60.21;99599.72;1790643;80;21637;-61
2021/04/01 07:03:42;;;;;;;20.55;17.87;;;;;;;15.73;59.71;99597.75;1773962;80;21571;-61
2021/04/01 07:06:16;;;;;;;23.98;17.05;;;;;;;15.89;58.83;99591.59;1786804;80;21189;-62
2021/04/01 07:08:50;;;;;;;22.73;17.85;;;;;;;16.02;58.69;99596.77;1779934;80;21129;-60
2021/04/01 07:11:36;;;;;;;22.37;17.50;;;;;;;16.13;58.60;99599.53;1757091;80;21767;-61
2021/04/01 07:14:13;;;;;;;20.48;18.27;;;;;;;16.30;57.58;99601.59;1763631;80;21625;-62
2021/04/01 07:19:24;;;;;;;19.80;17.67;;;;;;;16.43;57.63;99599.35;1732341;81;21168;-61
2021/04/01 07:44:53;;;;;;;21.60;17.05;;;;;;;16.68;56.80;99574.00;1716576;81;21293;-62
2021/04/01 07:47:24;;;;;;;22.80;18.37;;;;;;;16.82;56.30;99576.64;1723053;83;21177;-61
2021/04/01 07:49:53;;;;;;;18.82;16.48;;;;;;;16.90;56.29;99571.16;1707123;83;21573;-62
2021/04/01 07:52:27;;;;;;;18.30;15.98;;;;;;;17.14;55.82;99568.04;1702060;83;21344;-62
2021/04/01 08:00:31;;;;;;;22.00;17.20;;;;;;;17.12;54.53;99570.84;1733592;82;21272;-62
2021/04/01 08:05:42;;;;;;;20.17;15.80;;;;;;;16.88;55.14;99566.56;1727434;81;21177;-62
2021/04/01 08:08:12;;;;;;;18.90;15.95;;;;;;;16.68;55.50;99559.44;1748855;81;21161;-62
2021/04/01 08:10:43;;;;;;;18.40;15.78;;;;;;;16.57;56.20;99558.90;1746690;82;21160;-62
2021/04/01 08:13:13;;;;;;;21.23;17.52;;;;;;;16.50;56.74;99550.27;1741481;81;21129;-62
2021/04/01 08:15:49;;;;;;;20.82;16.82;;;;;;;16.45;56.52;99555.88;1717470;82;21119;-62
2021/04/01 08:20:56;;;;;;;20.30;17.48;;;;;;;16.50;56.66;99539.83;1751216;82;21149;-60
2021/04/01 08:23:31;;;;;;;23.27;20.00;;;;;;;16.60;56.78;99534.91;1742618;82;21199;-60
2021/04/01 08:34:17;;;;;;;21.05;15.93;;;;;;;17.60;53.61;99516.60;1722781;82;21214;-62
2021/04/01 08:36:50;;;;;;;21.55;17.32;;;;;;;17.51;53.77;99517.11;1742574;82;21153;-61
2021/04/01 08:39:21;;;;;;;18.65;16.07;;;;;;;17.43;54.00;99506.90;1747701;82;21169;-62
2021/04/01 08:42:11;;;;;;;18.10;15.85;;;;;;;17.45;54.04;99505.22;1740999;82;21157;-62
2021/04/01 08:48:01;;;;;;;20.55;16.32;;;;;;;17.38;54.27;99505.70;1770570;79;23020;-61
2021/04/01 08:50:37;;;;;;;21.42;17.90;;;;;;;17.33;54.76;99502.53;1701724;83;21161;-63
2021/04/01 08:53:44;;;;;;;21.07;17.12;;;;;;;17.43;54.34;99498.08;1712202;83;21771;-61
2021/04/01 08:57:02;;;;;;;18.35;15.85;;;;;;;17.67;54.13;99495.47;1721646;83;21153;-61
2021/04/01 09:00:08;;;;;;;24.12;21.40;;;;;;;17.98;53.39;99496.66;1715498;83;21165;-60
2021/04/01 09:02:37;;;;;;;25.70;20.85;;;;;;;18.15;52.45;99484.22;1707172;83;21173;-62
2021/04/01 09:05:09;;;;;;;24.55;21.33;;;;;;;18.25;52.64;99486.05;1715010;82;21157;-62
2021/04/01 09:07:45;;;;;;;21.20;14.70;;;;;;;18.48;51.19;99487.21;1690760;83;21317;-63
2021/04/01 09:13:10;;;;;;;20.15;15.25;;;;;;;18.50;51.19;99478.84;1806275;79;23076;-61
2021/04/01 09:18:27;;;;;;;17.07;13.32;;;;;;;18.72;50.41;99469.55;1760703;79;23125;-60
2021/04/01 09:21:04;;;;;;;15.85;13.60;;;;;;;18.95;50.00;99468.14;1731797;82;21276;-61
2021/04/01 09:23:38;;;;;;;19.10;13.90;;;;;;;19.14;48.55;99460.78;1726863;82;21622;-61
2021/04/01 09:26:07;;;;;;;19.50;13.10;;;;;;;19.25;48.01;99456.48;1750665;82;21137;-60
2021/04/01 09:28:41;;;;;;;18.73;13.20;;;;;;;19.31;47.71;99457.33;1729075;81;21204;-62
2021/04/01 09:31:11;;;;;;;17.15;13.48;;;;;;;19.32;47.21;99458.95;1743886;80;21141;-61
2021/04/01 09:33:41;;;;;;;25.12;18.60;;;;;;;19.23;46.71;99446.37;1739568;82;21200;-60
2021/04/01 09:36:19;;;;;;;17.73;14.05;;;;;;;19.20;47.40;99445.06;1737079;82;21236;-61
2021/04/01 09:39:00;;;;;;;17.35;13.10;;;;;;;19.30;46.66;99448.02;1728244;82;21145;-62
2021/04/01 09:41:35;;;;;;;18.05;13.55;;;;;;;19.25;47.10;99437.17;1743509;82;21204;-62
2021/04/01 09:44:06;;;;;;;13.65;11.95;;;;;;;19.20;46.35;99432.65;1747094;82;21165;-61
2021/04/01 09:46:49;;;;;;;20.68;13.58;;;;;;;19.24;46.21;99423.94;1747685;82;21181;-61
2021/04/01 09:49:16;;;;;;;20.05;16.05;;;;;;;19.40;46.66;99425.53;1716517;82;21287;-62
2021/04/01 09:51:44;;;;;;;20.10;14.93;;;;;;;19.60;45.86;99426.67;1707512;83;21631;-60
2021/04/01 09:54:17;;;;;;;16.42;12.75;;;;;;;19.75;44.96;99416.39;1679472;84;21211;-61
2021/04/01 09:56:56;;;;;;;17.62;12.98;;;;;;;19.81;44.92;99413.64;1722355;82;21157;-60
2021/04/01 09:59:41;;;;;;;12.93;11.12;;;;;;;19.89;44.18;99418.28;1751928;82;21214;-61
2021/04/01 10:02:07;;;;;;;13.08;10.88;;;;;;;19.87;42.01;99413.08;1721716;82;21161;-61
2021/04/01 10:04:35;;;;;;;14.55;9.10;;;;;;;19.84;42.50;99419.29;1739621;82;21153;-61
2021/04/01 10:07:14;;;;;;;16.73;12.68;;;;;;;19.88;41.31;99407.80;1753098;80;21217;-61
2021/04/01 10:09:50;;;;;;;17.35;12.15;;;;;;;19.91;43.31;99404.14;1673046;84;21193;-61
2021/04/01 10:12:21;;;;;;;;;;;;;;;19.92;43.70;99399.64;1690562;85;21547;-62
2021/04/01 10:14:53;;;;;;;15.65;8.85;;;;;;;19.87;43.47;99402.62;1695209;83;20171;-62
2021/04/01 10:17:22;;;;;;;12.53;9.48;;;;;;;19.82;41.50;99398.13;1671887;85;21193;-62
2021/04/01 10:19:59;;;;;;;9.88;8.13;;;;;;;19.90;41.79;99392.84;1714284;82;21544;-61
2021/04/01 10:22:28;;;;;;;;;;;;;;;19.88;39.64;99394.55;1738843;82;21221;-61
2021/04/01 10:25:18;;;;;;;12.45;9.73;;;;;;;19.89;38.15;99387.89;1737438;82;20166;-62
2021/04/01 10:30:33;;;;;;;9.93;6.87;;;;;;;19.96;40.41;99385.38;1794109;79;23403;-61
2021/04/01 10:33:07;;;;;;;12.37;7.30;;;;;;;19.83;37.68;99372.12;1787735;80;21161;-60
2021/04/01 10:35:38;;;;;;;9.23;6.42;;;;;;;19.67;37.75;99378.05;1739779;81;21246;-61
2021/04/01 10:38:06;;;;;;;11.60;6.95;;;;;;;19.51;37.59;99372.12;1771941;80;21743;-60
2021/04/01 10:40:35;;;;;;;10.55;7.17;;;;;;;19.44;38.49;99364.97;1760491;80;21172;-62
2021/04/01 10:43:08;;;;;;;11.18;8.18;;;;;;;19.56;39.81;99352.57;1763180;80;21151;-60
2021/04/01 10:45:44;;;;;;;11.15;7.80;;;;;;;19.75;40.26;99345.40;1760214;80;21141;-61
2021/04/01 10:48:33;;;;;;;10.70;7.60;;;;;;;19.95;37.90;99348.41;1768820;80;21164;-60
2021/04/01 10:51:04;;;;;;;10.00;7.20;;;;;;;20.00;37.95;99344.87;1757415;80;21153;-60
2021/04/01 10:53:32;;;;;;;10.23;7.25;;;;;;;19.81;38.69;99344.59;1788798;80;21181;-61
2021/04/01 10:56:04;;;;;;;10.03;6.08;;;;;;;19.73;39.19;99341.38;1768913;80;21122;-62
2021/04/01 10:58:32;;;;;;;11.33;7.37;;;;;;;19.71;39.14;99338.13;1767338;80;21572;-61
2021/04/01 11:01:01;;;;;;;9.63;6.37;;;;;;;19.78;38.83;99332.28;1766545;80;21156;-61
2021/04/01 11:03:31;;;;;;;11.08;7.60;;;;;;;19.92;38.90;99323.67;1783197;80;21576;-63
2021/04/01 11:05:59;;;;;;;11.88;7.33;;;;;;;20.14;38.51;99312.75;1760211;81;21133;-60
2021/04/01 11:08:26;;;;;;;10.30;7.53;;;;;;;20.30;38.25;99310.36;1760025;81;21225;-61
2021/04/01 11:11:00;;;;;;;12.07;7.17;;;;;;;20.25;37.97;99313.34;1763100;80;21125;-60
2021/04/01 11:13:42;;;;;;;9.33;6.80;;;;;;;20.24;38.26;99303.43;1778926;80;21181;-61
2021/04/01 11:16:12;;;;;;;10.18;7.10;;;;;;;20.37;38.11;99302.08;1762315;80;21157;-61
2021/04/01 11:18:47;;;;;;;12.20;6.45;;;;;;;20.52;37.52;99296.63;1763593;80;21178;-60
2021/04/01 11:21:15;;;;;;;11.00;7.12;;;;;;;20.68;37.12;99299.50;1760554;80;21246;-60
2021/04/01 11:23:42;;;;;;;10.05;7.42;;;;;;;20.67;37.22;99297.30;1740853;81;21187;-60
2021/04/01 11:26:10;;;;;;;11.63;6.60;;;;;;;20.50;37.58;99287.89;1760676;80;21584;-62
2021/04/01 11:28:45;;;;;;;8.03;6.20;;;;;;;20.41;38.11;99287.77;1766734;80;21161;-60
2021/04/01 11:31:29;;;;;;;8.43;5.50;;;;;;;20.41;37.67;99283.05;1747753;81;21149;-59
2021/04/01 11:33:58;;;;;;;10.13;6.65;;;;;;;20.45;37.87;99283.16;1763827;80;21605;-61
2021/04/01 11:36:37;;;;;;;8.95;5.50;;;;;;;20.46;36.83;99270.39;1775543;80;21193;-63
2021/04/01 11:38:59;;;;;;;8.05;5.50;;;;;;;20.35;36.93;99275.59;1762262;80;21459;-62
2021/04/01 11:41:28;;;;;;;10.08;5.80;;;;;;;20.25;37.08;99262.21;1770631;80;21121;-63
2021/04/01 11:43:57;;;;;;;8.50;6.00;;;;;;;20.17;36.78;99258.98;1765384;80;21189;-61
2021/04/01 11:46:30;;;;;;;9.43;6.30;;;;;;;20.20;37.19;99250.00;1746338;82;21153;-61
2021/04/01 11:48:59;;;;;;;9.20;5.87;;;;;;;20.25;37.07;99255.88;1768523;80;21194;-62
2021/04/01 11:51:33;;;;;;;9.28;5.75;;;;;;;20.21;37.34;99257.72;1751220;80;21608;-61
2021/04/01 11:54:02;;;;;;;12.63;6.80;;;;;;;20.16;37.22;99247.69;1754192;80;21146;-61
2021/04/01 11:56:40;;;;;;;7.92;6.47;;;;;;;20.14;37.49;99246.44;1739249;81;21113;-61
2021/04/01 11:59:14;;;;;;;8.50;5.40;;;;;;;20.12;36.97;99238.48;1746841;81;21944;-63
2021/04/01 12:04:34;;;;;;;9.43;5.45;;;;;;;20.41;36.42;99226.95;1805119;79;23107;-60
2021/04/01 12:07:04;;;;;;;9.38;6.30;;;;;;;20.49;36.49;99226.83;1729506;80;21621;-62
2021/04/01 12:09:31;;;;;;;7.72;5.53;;;;;;;20.54;37.30;99220.27;1741369;80;21181;-61
2021/04/01 12:11:59;;;;;;;9.13;5.45;;;;;;;20.62;36.56;99218.72;1786507;80;21538;-64
2021/04/01 12:14:37;;;;;;;7.03;5.58;;;;;;;20.65;36.59;99214.47;1783827;79;21738;-63
2021/04/01 12:17:08;;;;;;;6.70;5.47;;;;;;;20.76;36.54;99212.83;1755225;80;21161;-62
2021/04/01 12:19:36;;;;;;;11.63;6.45;;;;;;;20.90;36.75;99202.16;1777724;80;21145;-63
2021/04/01 12:22:06;;;;;;;7.92;5.70;;;;;;;20.84;35.00;99197.44;1751615;80;21174;-62
2021/04/01 12:24:36;;;;;;;7.42;5.37;;;;;;;20.79;35.28;99188.61;1751581;80;21161;-62
2021/04/01 12:27:04;;;;;;;7.75;5.00;;;;;;;20.81;35.04;99188.47;1772878;80;21114;-63
2021/04/01 12:29:32;;;;;;;8.63;5.35;;;;;;;20.90;34.70;99184.75;1763028;80;21292;-62
2021/04/01 12:32:01;;;;;;;8.40;5.10;;;;;;;20.87;34.77;99184.86;1753097;80;21153;-63
2021/04/01 12:34:30;;;;;;;8.50;5.53;;;;;;;20.80;34.45;99178.55;1757055;80;21137;-61
2021/04/01 12:37:02;;;;;;;8.18;5.58;;;;;;;20.73;35.00;99178.36;1781880;80;21141;-62
2021/04/01 12:39:32;;;;;;;10.35;6.80;;;;;;;20.78;34.82;99176.73;1738646;80;21186;-62
2021/04/01 12:41:59;;;;;;;7.90;5.53;;;;;;;20.71;35.58;99163.28;1755441;80;21292;-61
2021/04/01 12:44:39;;;;;;;12.43;8.18;;;;;;;20.56;36.43;99167.59;1773860;79;21578;-63
2021/04/01 12:47:07;;;;;;;10.40;5.97;;;;;;;20.38;35.71;99171.80;1754653;79;21170;-62
2021/04/01 12:49:36;;;;;;;10.95;6.33;;;;;;;20.30;36.22;99166.63;1786485;80;21208;-62
2021/04/01 12:52:05;;;;;;;10.58;6.08;;;;;;;20.21;36.37;99159.04;1743827;80;21165;-63
2021/04/01 12:54:38;;;;;;;10.15;6.72;;;;;;;20.16;36.61;99158.45;1780690;80;21204;-63
2021/04/01 12:57:10;;;;;;;9.43;6.30;;;;;;;20.16;36.56;99151.55;1778633;80;21299;-63
2021/04/01 12:59:41;;;;;;;8.93;5.58;;;;;;;20.19;36.27;99148.11;1763690;80;21679;-63
2021/04/01 13:04:54;;;;;;;9.27;5.70;;;;;;;20.22;34.90;99134.97;1763022;79;32661;-61
2021/04/01 13:09:50;;;;;;;11.95;5.85;;;;;;;20.45;34.89;99129.16;1715296;83;21585;-63
2021/04/01 13:12:18;;;;;;;7.83;5.10;;;;;;;20.22;34.52;99127.49;1708854;83;21648;-61
2021/04/01 13:14:47;;;;;;;8.63;5.20;;;;;;;20.10;34.74;99121.98;1697379;83;21177;-63
2021/04/01 13:17:16;;;;;;;9.18;5.90;;;;;;;20.07;35.42;99123.27;1695693;82;21154;-64
2021/04/01 13:19:44;;;;;;;8.73;5.50;;;;;;;19.93;35.39;99111.78;1703468;83;21314;-62
2021/04/01 13:22:14;;;;;;;9.13;6.70;;;;;;;19.72;36.23;99116.89;1695253;82;21165;-61
2021/04/01 13:27:18;;;;;;;6.97;5.65;;;;;;;19.54;37.00;99109.19;1649644;87;21650;-62
2021/04/01 13:29:55;;;;;;;8.33;5.60;;;;;;;19.42;37.53;99103.09;1669907;85;21715;-62
2021/04/01 13:32:35;;;;;;;10.05;5.78;;;;;;;19.30;37.23;99103.88;1648513;87;21560;-63
2021/04/01 13:35:06;;;;;;;8.38;5.25;;;;;;;19.18;37.05;99095.58;1675924;85;21536;-61
2021/04/01 13:40:20;;;;;;;9.13;6.07;;;;;;;19.13;36.99;99088.11;1796516;79;22370;-61
2021/04/01 13:42:54;;;;;;;9.08;5.17;;;;;;;19.00;37.12;99090.04;1762232;80;21202;-60
2021/04/01 13:48:07;;;;;;;7.83;6.20;;;;;;;19.00;37.85;99076.25;1801471;77;28806;-61